Darstellungsparameter: Aktuell verwendete Einstellungen:
Skalierung der Graphiken ... ?
xyx+y,   Skalierungsfaktor:      Skalierung: Modus: x, Faktor: 1
Darstellungszeitraum ... ?
Vom - - bis: - -   Zeitraum: 03.09.2016 - 03.09.2016
Min/Max/Avg-Anzeige ... ?
Zeige MMA aktuell
Zeige MMA Monat
Zeige MMA alles
Zeige --A aktuell
Zeige --A Monat
Zeige --A alles
Keine MMA-Anzeige
MMA:
Average (ber die Originaldaten)
MMA-Basis: 03.09.2016 - 03.09.2016
Quicknavigation für Darstellung... ?
Tage:      1T, 2T, 3T, 5T -1T -2T -3T -5T +1T +2T +3T +5T
Wochen: 1W, 2W, 3W -1W -2W -3W +1W +2W +3W
Monate: 1M, 3M, 6M -1M -3M -6M +1M +3M +6M
Jahre:    1J, 3J, 5J, 10J -1J -3J -5J -10J +1J +3J +5J +10J
Nutze für die Darstellung ... ?
Originaldaten oder Mittelwerte auf ...
Stundenbasis Tagesbasis Wochenbasis
Monatsbasis Jahresbasis      Datenbasis: Original-Daten
Darstellen als:
Statistik (Auto) Statistik J:M      Darstellung:
Zur Graphik,    zurück zur Übersicht aller Sensoren.
 
Tabellarische Datenbersicht: ?
 
Sensor: Nr:Datum:Temp:Abs-Feuchte:Windchill:Wind:
Aussen-T/F 1 03-09-2016 00:00:00 18.7 C 12.97 g/m*3 18.7 C 0 km/h
2 03-09-2016 00:05:00 18.7 C 12.97 g/m*3 18.7 C 0 km/h
3 03-09-2016 00:10:00 18.6 C 13.05 g/m*3 18.6 C 0 km/h
4 03-09-2016 00:15:00 18.6 C 13.05 g/m*3 18.6 C 0 km/h
5 03-09-2016 00:20:00 18.5 C 12.97 g/m*3 18.5 C 0 km/h
6 03-09-2016 00:25:00 18.4 C 12.9 g/m*3 18.4 C 0 km/h
7 03-09-2016 00:30:00 18.3 C 12.82 g/m*3 18.3 C 0 km/h
8 03-09-2016 00:35:00 18.2 C 12.75 g/m*3 18.2 C 0 km/h
9 03-09-2016 00:40:00 18.1 C 12.82 g/m*3 18.1 C 0 km/h
10 03-09-2016 00:45:00 18.1 C 12.82 g/m*3 18.1 C 0 km/h
11 03-09-2016 00:50:00 18 C 12.75 g/m*3 18 C 0 km/h
12 03-09-2016 00:55:00 18 C 12.9 g/m*3 18 C 0 km/h
13 03-09-2016 01:00:00 17.9 C 12.67 g/m*3 17.9 C 0 km/h
14 03-09-2016 01:05:00 17.9 C 12.83 g/m*3 17.9 C 0 km/h
15 03-09-2016 01:10:00 17.9 C 12.83 g/m*3 17.9 C 0 km/h
16 03-09-2016 01:15:00 17.9 C 12.83 g/m*3 17.9 C 0 km/h
17 03-09-2016 01:20:00 17.8 C 12.75 g/m*3 17.8 C 0 km/h
18 03-09-2016 01:25:00 17.8 C 12.75 g/m*3 17.8 C 0 km/h
19 03-09-2016 01:30:00 17.8 C 12.9 g/m*3 17.8 C 0 km/h
20 03-09-2016 01:35:00 17.8 C 12.75 g/m*3 17.8 C 1.6 km/h
21 03-09-2016 01:40:00 17.8 C 12.75 g/m*3 17.8 C 0 km/h
22 03-09-2016 01:45:00 17.8 C 12.75 g/m*3 17.8 C 0 km/h
23 03-09-2016 01:50:00 17.8 C 12.9 g/m*3 17.8 C 0 km/h
24 03-09-2016 01:55:00 17.8 C 13.05 g/m*3 17.8 C 0 km/h
25 03-09-2016 02:00:00 17.8 C 13.05 g/m*3 17.8 C 0 km/h
Sensor: Nr:Datum:Temp:Abs-Feuchte:Windchill:Wind:
Aussen-T/F 26 03-09-2016 02:05:00 17.7 C 12.98 g/m*3 17.7 C 0 km/h
27 03-09-2016 02:10:00 17.6 C 12.9 g/m*3 17.6 C 0 km/h
28 03-09-2016 02:15:00 17.5 C 12.82 g/m*3 17.5 C 0 km/h
29 03-09-2016 02:20:00 17.4 C 12.75 g/m*3 17.4 C 0 km/h
30 03-09-2016 02:25:00 17.4 C 12.75 g/m*3 17.4 C 0 km/h
31 03-09-2016 02:30:00 17.4 C 12.89 g/m*3 17.4 C 0 km/h
32 03-09-2016 02:35:00 17.4 C 12.89 g/m*3 17.4 C 0 km/h
33 03-09-2016 02:40:00 17.3 C 12.82 g/m*3 17.3 C 0 km/h
34 03-09-2016 02:45:00 17.3 C 12.82 g/m*3 17.3 C 0 km/h
35 03-09-2016 02:50:00 17.4 C 12.75 g/m*3 17.4 C 0 km/h
36 03-09-2016 02:55:00 17.4 C 12.75 g/m*3 17.4 C 0 km/h
37 03-09-2016 03:00:00 17.5 C 12.82 g/m*3 17.5 C 0 km/h
38 03-09-2016 03:05:00 17.5 C 12.82 g/m*3 17.5 C 0 km/h
39 03-09-2016 03:10:00 17.5 C 12.82 g/m*3 17.5 C 0 km/h
40 03-09-2016 03:15:00 17.4 C 12.75 g/m*3 17.4 C 0 km/h
41 03-09-2016 03:20:00 17.4 C 12.75 g/m*3 17.4 C 0 km/h
42 03-09-2016 03:25:00 17.4 C 12.75 g/m*3 17.4 C 0 km/h
43 03-09-2016 03:30:00 17.4 C 12.75 g/m*3 17.4 C 0 km/h
44 03-09-2016 03:35:00 17.3 C 12.52 g/m*3 17.3 C 0 km/h
45 03-09-2016 03:40:00 17.2 C 12.45 g/m*3 17.2 C 0 km/h
46 03-09-2016 03:45:00 17.1 C 12.37 g/m*3 17.1 C 0 km/h
47 03-09-2016 03:50:00 16.8 C 12.3 g/m*3 16.8 C 0 km/h
48 03-09-2016 03:55:00 16.7 C 12.22 g/m*3 16.7 C 0 km/h
49 03-09-2016 04:00:00 16.7 C 12.36 g/m*3 16.7 C 1.6 km/h
50 03-09-2016 04:05:00 16.7 C 12.36 g/m*3 16.7 C 1.6 km/h
Sensor: Nr:Datum:Temp:Abs-Feuchte:Windchill:Wind:
Aussen-T/F 51 03-09-2016 04:10:00 16.7 C 12.36 g/m*3 16.7 C 0 km/h
52 03-09-2016 04:15:00 16.6 C 12.29 g/m*3 16.6 C 0 km/h
53 03-09-2016 04:20:00 16.5 C 12.22 g/m*3 16.5 C 0 km/h
54 03-09-2016 04:25:00 16.4 C 12.28 g/m*3 16.4 C 1.6 km/h
55 03-09-2016 04:30:00 16.4 C 12.28 g/m*3 16.4 C 0 km/h
56 03-09-2016 04:35:00 16.4 C 12.28 g/m*3 16.4 C 1.6 km/h
57 03-09-2016 04:40:00 16.4 C 12.28 g/m*3 16.4 C 0 km/h
58 03-09-2016 04:45:00 16.3 C 12.21 g/m*3 16.3 C 0 km/h
59 03-09-2016 04:50:00 16.3 C 12.35 g/m*3 16.3 C 0 km/h
60 03-09-2016 04:55:00 16.2 C 12.27 g/m*3 16.2 C 0 km/h
61 03-09-2016 05:00:00 16.2 C 12.27 g/m*3 16.2 C 0 km/h
62 03-09-2016 05:05:00 16.2 C 12.27 g/m*3 16.2 C 0 km/h
63 03-09-2016 05:10:00 16.1 C 12.2 g/m*3 16.1 C 0 km/h
64 03-09-2016 05:15:00 16 C 12.13 g/m*3 16 C 0 km/h
65 03-09-2016 05:20:00 15.9 C 12.05 g/m*3 15.9 C 0 km/h
66 03-09-2016 05:25:00 15.8 C 11.98 g/m*3 15.8 C 0 km/h
67 03-09-2016 05:30:00 15.7 C 11.91 g/m*3 15.7 C 0 km/h
68 03-09-2016 05:35:00 15.6 C 11.84 g/m*3 15.6 C 0 km/h
69 03-09-2016 05:40:00 15.6 C 11.84 g/m*3 15.6 C 0 km/h
70 03-09-2016 05:45:00 15.4 C 11.69 g/m*3 15.4 C 0 km/h
71 03-09-2016 05:50:00 15.3 C 11.62 g/m*3 15.3 C 0 km/h
72 03-09-2016 05:55:00 15.2 C 11.68 g/m*3 15.2 C 0 km/h
73 03-09-2016 06:00:00 15.1 C 11.61 g/m*3 15.1 C 0 km/h
74 03-09-2016 06:05:00 15.1 C 11.61 g/m*3 15.1 C 0 km/h
75 03-09-2016 06:10:00 14.9 C 11.47 g/m*3 14.9 C 0 km/h
Sensor: Nr:Datum:Temp:Abs-Feuchte:Windchill:Wind:
Aussen-T/F 76 03-09-2016 06:15:00 14.9 C 11.6 g/m*3 14.9 C 0 km/h
77 03-09-2016 06:20:00 14.8 C 11.53 g/m*3 14.8 C 0 km/h
78 03-09-2016 06:25:00 14.8 C 11.53 g/m*3 14.8 C 0 km/h
79 03-09-2016 06:30:00 14.7 C 11.46 g/m*3 14.7 C 0 km/h
80 03-09-2016 06:35:00 14.6 C 11.39 g/m*3 14.6 C 0 km/h
81 03-09-2016 06:40:00 14.5 C 11.32 g/m*3 14.5 C 0 km/h
82 03-09-2016 06:45:00 14.4 C 11.37 g/m*3 14.4 C 0 km/h
83 03-09-2016 06:50:00 14.4 C 11.37 g/m*3 14.4 C 0 km/h
84 03-09-2016 06:55:00 14.3 C 11.3 g/m*3 14.3 C 0 km/h
85 03-09-2016 07:00:00 14.3 C 11.3 g/m*3 14.3 C 0 km/h
86 03-09-2016 07:05:00 14.3 C 11.3 g/m*3 14.3 C 0 km/h
87 03-09-2016 07:10:00 14.3 C 11.3 g/m*3 14.3 C 0 km/h
88 03-09-2016 07:15:00 14.3 C 11.43 g/m*3 14.3 C 0 km/h
89 03-09-2016 07:20:00 14.3 C 11.43 g/m*3 14.3 C 0 km/h
90 03-09-2016 07:25:00 14.3 C 11.43 g/m*3 14.3 C 0 km/h
91 03-09-2016 07:30:00 14.4 C 11.5 g/m*3 14.4 C 0 km/h
92 03-09-2016 07:35:00 14.4 C 11.5 g/m*3 14.4 C 0 km/h
93 03-09-2016 07:40:00 14.6 C 11.64 g/m*3 14.6 C 0 km/h
94 03-09-2016 07:45:00 14.7 C 11.71 g/m*3 14.7 C 0 km/h
95 03-09-2016 07:50:00 14.7 C 11.71 g/m*3 14.7 C 0 km/h
96 03-09-2016 07:55:00 14.8 C 11.91 g/m*3 14.8 C 0 km/h
97 03-09-2016 08:00:00 14.9 C 11.98 g/m*3 14.9 C 0 km/h
98 03-09-2016 08:05:00 15.1 C 12 g/m*3 15.1 C 1.6 km/h
99 03-09-2016 08:10:00 15.2 C 12.07 g/m*3 15.2 C 1.6 km/h
100 03-09-2016 08:15:00 15.2 C 12.07 g/m*3 15.2 C 0 km/h
Sensor: Nr:Datum:Temp:Abs-Feuchte:Windchill:Wind:
Aussen-T/F 101 03-09-2016 08:20:00 15.3 C 12.14 g/m*3 15.3 C 1.6 km/h
102 03-09-2016 08:25:00 15.3 C 12.14 g/m*3 15.3 C 0 km/h
103 03-09-2016 08:30:00 15.4 C 12.22 g/m*3 15.4 C 0 km/h
104 03-09-2016 08:35:00 15.5 C 12.29 g/m*3 15.5 C 0 km/h
105 03-09-2016 08:40:00 15.6 C 12.37 g/m*3 15.6 C 0 km/h
106 03-09-2016 08:45:00 15.7 C 12.31 g/m*3 15.7 C 0 km/h
107 03-09-2016 08:50:00 15.8 C 12.38 g/m*3 15.8 C 0 km/h
108 03-09-2016 08:55:00 15.9 C 12.32 g/m*3 15.9 C 0 km/h
109 03-09-2016 09:00:00 16 C 12.4 g/m*3 16 C 0 km/h
110 03-09-2016 09:05:00 16.1 C 12.47 g/m*3 16.1 C 0 km/h
111 03-09-2016 09:10:00 16.3 C 12.62 g/m*3 16.3 C 0 km/h
112 03-09-2016 09:15:00 16.3 C 12.49 g/m*3 16.3 C 0 km/h
113 03-09-2016 09:20:00 16.4 C 12.56 g/m*3 16.4 C 0 km/h
114 03-09-2016 09:25:00 16.5 C 12.5 g/m*3 16.5 C 0 km/h
115 03-09-2016 09:30:00 16.6 C 12.71 g/m*3 16.6 C 0 km/h
116 03-09-2016 09:35:00 16.7 C 12.79 g/m*3 16.7 C 0 km/h
117 03-09-2016 09:40:00 16.8 C 12.72 g/m*3 16.8 C 0 km/h
118 03-09-2016 09:45:00 16.8 C 12.87 g/m*3 16.8 C 0 km/h
119 03-09-2016 09:50:00 17 C 13.02 g/m*3 17 C 0 km/h
120 03-09-2016 09:55:00 17.1 C 13.1 g/m*3 17.1 C 0 km/h
121 03-09-2016 10:00:00 17.2 C 13.33 g/m*3 17.2 C 0 km/h
122 03-09-2016 10:05:00 17.3 C 13.26 g/m*3 17.3 C 0 km/h
123 03-09-2016 10:10:00 17.3 C 13.11 g/m*3 17.3 C 0 km/h
124 03-09-2016 10:15:00 17.5 C 13.42 g/m*3 17.5 C 0 km/h
125 03-09-2016 10:20:00 17.6 C 13.35 g/m*3 17.6 C 0 km/h
Sensor: Nr:Datum:Temp:Abs-Feuchte:Windchill:Wind:
Aussen-T/F 126 03-09-2016 10:25:00 17.8 C 13.51 g/m*3 17.8 C 0 km/h
127 03-09-2016 10:30:00 18 C 13.52 g/m*3 18 C 0 km/h
128 03-09-2016 10:35:00 18.2 C 13.68 g/m*3 18.2 C 0 km/h
129 03-09-2016 10:40:00 18.4 C 13.68 g/m*3 18.4 C 0 km/h
130 03-09-2016 10:45:00 18.7 C 13.45 g/m*3 18.7 C 0 km/h
131 03-09-2016 10:50:00 19 C 13.69 g/m*3 19 C 1.6 km/h
132 03-09-2016 10:55:00 19.3 C 13.77 g/m*3 19.3 C 0 km/h
133 03-09-2016 11:00:00 19.6 C 13.67 g/m*3 19.6 C 0 km/h
134 03-09-2016 11:05:00 19.9 C 13.74 g/m*3 19.9 C 0 km/h
135 03-09-2016 11:10:00 20.2 C 14.16 g/m*3 20.2 C 1.6 km/h
136 03-09-2016 11:15:00 20.5 C 14.41 g/m*3 20.5 C 3.2 km/h
137 03-09-2016 11:20:00 20.8 C 14.67 g/m*3 20.8 C 0 km/h
138 03-09-2016 11:25:00 20.9 C 14.21 g/m*3 20.9 C 0 km/h
139 03-09-2016 11:30:00 21.1 C 14.74 g/m*3 21.1 C 0 km/h
140 03-09-2016 11:35:00 21.2 C 14.64 g/m*3 21.2 C 0 km/h
141 03-09-2016 11:40:00 21.3 C 14.91 g/m*3 21.3 C 0 km/h
142 03-09-2016 11:45:00 21.4 C 15.19 g/m*3 21.4 C 0 km/h
143 03-09-2016 11:50:00 21.6 C 15.17 g/m*3 21.6 C 0 km/h
144 03-09-2016 11:55:00 21.8 C 15.35 g/m*3 21.8 C 0 km/h
145 03-09-2016 12:00:00 21.9 C 14.09 g/m*3 21.9 C 4.8 km/h
146 03-09-2016 12:05:00 22.2 C 13.94 g/m*3 22.2 C 4.8 km/h
147 03-09-2016 12:10:00 22.4 C 13.7 g/m*3 22.4 C 1.6 km/h
148 03-09-2016 12:15:00 22.6 C 13.66 g/m*3 22.6 C 3.2 km/h
149 03-09-2016 12:20:00 22.7 C 14.55 g/m*3 22.7 C 0 km/h
150 03-09-2016 12:25:00 22.8 C 14.02 g/m*3 22.8 C 1.6 km/h
Sensor: Nr:Datum:Temp:Abs-Feuchte:Windchill:Wind:
Aussen-T/F 151 03-09-2016 12:30:00 23.1 C 15.5 g/m*3 23.1 C 0 km/h
152 03-09-2016 12:35:00 23.3 C 15.05 g/m*3 23.3 C 0 km/h
153 03-09-2016 12:40:00 23.4 C 14.51 g/m*3 23.4 C 4.8 km/h
154 03-09-2016 12:45:00 23.7 C 14.33 g/m*3 23.7 C 4.8 km/h
155 03-09-2016 12:50:00 23.8 C 14.41 g/m*3 23.8 C 4.8 km/h
156 03-09-2016 12:55:00 23.9 C 14.28 g/m*3 23.9 C 4.8 km/h
157 03-09-2016 13:00:00 23.9 C 14.49 g/m*3 23.9 C 4.8 km/h
158 03-09-2016 13:05:00 24 C 14.36 g/m*3 24 C 8.1 km/h
159 03-09-2016 13:10:00 24.1 C 14.44 g/m*3 24.1 C 4.8 km/h
160 03-09-2016 13:15:00 24.1 C 14.22 g/m*3 24.1 C 4.8 km/h
161 03-09-2016 13:20:00 24.2 C 14.08 g/m*3 24.2 C 4.8 km/h
162 03-09-2016 13:25:00 24.2 C 14.52 g/m*3 24.2 C 4.8 km/h
163 03-09-2016 13:30:00 24.3 C 13.72 g/m*3 24.3 C 8.1 km/h
164 03-09-2016 13:35:00 24.5 C 14.32 g/m*3 24.5 C 6.4 km/h
165 03-09-2016 13:40:00 24.6 C 13.28 g/m*3 24.6 C 6.4 km/h
166 03-09-2016 13:45:00 24.8 C 15.25 g/m*3 24.8 C 1.6 km/h
167 03-09-2016 13:50:00 24.8 C 14.11 g/m*3 24.8 C 3.2 km/h
168 03-09-2016 13:55:00 24.9 C 15.57 g/m*3 24.9 C 3.2 km/h
169 03-09-2016 14:00:00 24.9 C 13.73 g/m*3 24.9 C 8.1 km/h
170 03-09-2016 14:05:00 25.2 C 13.04 g/m*3 25.2 C 8.1 km/h
171 03-09-2016 14:10:00 25.5 C 13.02 g/m*3 25.5 C 9.7 km/h
172 03-09-2016 14:15:00 25.7 C 13.65 g/m*3 25.7 C 6.4 km/h
173 03-09-2016 14:20:00 25.9 C 13.8 g/m*3 25.9 C 4.8 km/h
174 03-09-2016 14:25:00 26.1 C 13.71 g/m*3 26.1 C 14.5 km/h
175 03-09-2016 14:30:00 26.3 C 13.37 g/m*3 26.3 C 12.9 km/h
Sensor: Nr:Datum:Temp:Abs-Feuchte:Windchill:Wind:
Aussen-T/F 176 03-09-2016 14:35:00 26.4 C 12.94 g/m*3 26.4 C 12.9 km/h
177 03-09-2016 14:40:00 26.5 C 13.27 g/m*3 26.5 C 12.9 km/h
178 03-09-2016 14:45:00 26.6 C 12.84 g/m*3 26.6 C 9.7 km/h
179 03-09-2016 14:50:00 26.6 C 13.34 g/m*3 26.6 C 8.1 km/h
180 03-09-2016 14:55:00 26.7 C 13.16 g/m*3 26.7 C 9.7 km/h
181 03-09-2016 15:00:00 26.8 C 12.98 g/m*3 26.8 C 11.3 km/h
182 03-09-2016 15:05:00 26.8 C 14.25 g/m*3 26.8 C 6.4 km/h
183 03-09-2016 15:10:00 26.9 C 13.56 g/m*3 26.9 C 8.1 km/h
184 03-09-2016 15:15:00 26.9 C 12.8 g/m*3 26.9 C 9.7 km/h
185 03-09-2016 15:20:00 27 C 12.87 g/m*3 27 C 6.4 km/h
186 03-09-2016 15:25:00 26.9 C 13.05 g/m*3 26.9 C 3.2 km/h
187 03-09-2016 15:30:00 26.9 C 13.31 g/m*3 26.9 C 11.3 km/h
188 03-09-2016 15:35:00 26.9 C 13.31 g/m*3 26.9 C 3.2 km/h
189 03-09-2016 15:40:00 26.8 C 13.49 g/m*3 26.8 C 6.4 km/h
190 03-09-2016 15:45:00 26.9 C 13.31 g/m*3 26.9 C 6.4 km/h
191 03-09-2016 15:50:00 27 C 12.61 g/m*3 27 C 14.5 km/h
192 03-09-2016 15:55:00 27.1 C 12.68 g/m*3 27.1 C 11.3 km/h
193 03-09-2016 16:00:00 27.2 C 13.01 g/m*3 27.2 C 6.4 km/h
194 03-09-2016 16:05:00 27.2 C 12.75 g/m*3 27.2 C 8.1 km/h
195 03-09-2016 16:10:00 27.2 C 13.53 g/m*3 27.2 C 6.4 km/h
196 03-09-2016 16:15:00 27.3 C 12.56 g/m*3 27.3 C 16.1 km/h
197 03-09-2016 16:20:00 27.4 C 13.16 g/m*3 27.4 C 11.3 km/h
198 03-09-2016 16:25:00 27.5 C 13.76 g/m*3 27.5 C 6.4 km/h
199 03-09-2016 16:30:00 27.7 C 13.11 g/m*3 27.7 C 9.7 km/h
200 03-09-2016 16:35:00 28.2 C 12.92 g/m*3 28.2 C 11.3 km/h
Sensor: Nr:Datum:Temp:Abs-Feuchte:Windchill:Wind:
Aussen-T/F 201 03-09-2016 16:40:00 28.6 C 12.93 g/m*3 28.6 C 11.3 km/h
202 03-09-2016 16:45:00 28.7 C 13 g/m*3 28.7 C 16.1 km/h
203 03-09-2016 16:50:00 28.9 C 14 g/m*3 28.9 C 8.1 km/h
204 03-09-2016 16:55:00 29.1 C 12.71 g/m*3 29.1 C 12.9 km/h
205 03-09-2016 17:00:00 29.2 C 13.65 g/m*3 29.2 C 6.4 km/h
206 03-09-2016 17:05:00 29.4 C 12.62 g/m*3 29.4 C 12.9 km/h
207 03-09-2016 17:10:00 29.6 C 12.76 g/m*3 29.6 C 9.7 km/h
208 03-09-2016 17:15:00 29.7 C 12.53 g/m*3 29.7 C 9.7 km/h
209 03-09-2016 17:20:00 29.8 C 13.8 g/m*3 29.8 C 6.4 km/h
210 03-09-2016 17:25:00 29.8 C 12.6 g/m*3 29.8 C 12.9 km/h
211 03-09-2016 17:30:00 29.7 C 12.23 g/m*3 29.7 C 19.3 km/h
212 03-09-2016 17:35:00 29.4 C 12.33 g/m*3 29.4 C 11.3 km/h
213 03-09-2016 17:40:00 29.4 C 13.21 g/m*3 29.4 C 1.6 km/h
214 03-09-2016 17:45:00 29.3 C 13.72 g/m*3 29.3 C 9.7 km/h
215 03-09-2016 17:50:00 29.2 C 13.94 g/m*3 29.2 C 8.1 km/h
216 03-09-2016 17:55:00 29 C 13.21 g/m*3 29 C 9.7 km/h
217 03-09-2016 18:00:00 28.8 C 13.35 g/m*3 28.8 C 6.4 km/h
218 03-09-2016 18:05:00 28.9 C 13.43 g/m*3 28.9 C 8.1 km/h
219 03-09-2016 18:10:00 29.1 C 13.28 g/m*3 29.1 C 3.2 km/h
220 03-09-2016 18:15:00 29.3 C 13.72 g/m*3 29.3 C 3.2 km/h
221 03-09-2016 18:20:00 29.4 C 13.21 g/m*3 29.4 C 6.4 km/h
222 03-09-2016 18:25:00 29.4 C 14.68 g/m*3 29.4 C 9.7 km/h
223 03-09-2016 18:30:00 29.1 C 13 g/m*3 29.1 C 9.7 km/h
224 03-09-2016 18:35:00 28.9 C 13.71 g/m*3 28.9 C 4.8 km/h
225 03-09-2016 18:40:00 28.6 C 14.33 g/m*3 28.6 C 0 km/h
Sensor: Nr:Datum:Temp:Abs-Feuchte:Windchill:Wind:
Aussen-T/F 226 03-09-2016 18:45:00 28.1 C 14.49 g/m*3 28.1 C 3.2 km/h
227 03-09-2016 18:50:00 27.4 C 14.21 g/m*3 27.4 C 1.6 km/h
228 03-09-2016 18:55:00 26.8 C 14 g/m*3 26.8 C 6.4 km/h
229 03-09-2016 19:00:00 26.6 C 13.59 g/m*3 26.6 C 11.3 km/h
230 03-09-2016 19:05:00 26.7 C 13.16 g/m*3 26.7 C 6.4 km/h
231 03-09-2016 19:10:00 26.9 C 14.33 g/m*3 26.9 C 3.2 km/h
232 03-09-2016 19:15:00 26.9 C 13.82 g/m*3 26.9 C 8.1 km/h
233 03-09-2016 19:20:00 26.8 C 14 g/m*3 26.8 C 4.8 km/h
234 03-09-2016 19:25:00 26.5 C 13.77 g/m*3 26.5 C 4.8 km/h
235 03-09-2016 19:30:00 26.2 C 13.54 g/m*3 26.2 C 0 km/h
236 03-09-2016 19:35:00 25.8 C 13.72 g/m*3 25.8 C 1.6 km/h
237 03-09-2016 19:40:00 25.4 C 13.65 g/m*3 25.4 C 1.6 km/h
238 03-09-2016 19:45:00 25 C 13.58 g/m*3 25 C 1.6 km/h
239 03-09-2016 19:50:00 24.6 C 13.5 g/m*3 24.6 C 1.6 km/h
240 03-09-2016 19:55:00 24.2 C 13.64 g/m*3 24.2 C 1.6 km/h
241 03-09-2016 20:00:00 23.8 C 13.34 g/m*3 23.8 C 1.6 km/h
242 03-09-2016 20:05:00 23.4 C 13.25 g/m*3 23.4 C 1.6 km/h
243 03-09-2016 20:10:00 23.1 C 13.44 g/m*3 23.1 C 1.6 km/h
244 03-09-2016 20:15:00 22.8 C 13.41 g/m*3 22.8 C 1.6 km/h
245 03-09-2016 20:20:00 22.5 C 13.18 g/m*3 22.5 C 0 km/h
246 03-09-2016 20:25:00 22.3 C 13.23 g/m*3 22.3 C 1.6 km/h
247 03-09-2016 20:30:00 22.1 C 13.08 g/m*3 22.1 C 1.6 km/h
248 03-09-2016 20:35:00 22 C 13 g/m*3 22 C 3.2 km/h
249 03-09-2016 20:40:00 21.9 C 12.93 g/m*3 21.9 C 1.6 km/h
250 03-09-2016 20:45:00 21.9 C 12.93 g/m*3 21.9 C 0 km/h
Sensor: Nr:Datum:Temp:Abs-Feuchte:Windchill:Wind:
Aussen-T/F 251 03-09-2016 20:50:00 21.9 C 12.93 g/m*3 21.9 C 0 km/h
252 03-09-2016 20:55:00 21.8 C 13.05 g/m*3 21.8 C 1.6 km/h
253 03-09-2016 21:00:00 21.7 C 13.16 g/m*3 21.7 C 1.6 km/h
254 03-09-2016 21:05:00 21.6 C 12.9 g/m*3 21.6 C 3.2 km/h
255 03-09-2016 21:10:00 21.5 C 12.82 g/m*3 21.5 C 0 km/h
256 03-09-2016 21:15:00 21.4 C 12.94 g/m*3 21.4 C 0 km/h
257 03-09-2016 21:20:00 21.2 C 12.42 g/m*3 21.2 C 0 km/h
258 03-09-2016 21:25:00 21.2 C 12.79 g/m*3 21.2 C 3.2 km/h
259 03-09-2016 21:30:00 21.1 C 12.71 g/m*3 21.1 C 1.6 km/h
260 03-09-2016 21:35:00 21 C 12.64 g/m*3 21 C 3.2 km/h
261 03-09-2016 21:40:00 20.9 C 12.57 g/m*3 20.9 C 0 km/h
262 03-09-2016 21:45:00 20.8 C 12.49 g/m*3 20.8 C 0 km/h
263 03-09-2016 21:50:00 20.6 C 12.53 g/m*3 20.6 C 1.6 km/h
264 03-09-2016 21:55:00 20.4 C 12.38 g/m*3 20.4 C 1.6 km/h
265 03-09-2016 22:00:00 20.2 C 12.24 g/m*3 20.2 C 0 km/h
266 03-09-2016 22:05:00 20 C 12.1 g/m*3 20 C 0 km/h
267 03-09-2016 22:10:00 19.9 C 12.03 g/m*3 19.9 C 0 km/h
268 03-09-2016 22:15:00 19.7 C 11.89 g/m*3 19.7 C 1.6 km/h
269 03-09-2016 22:20:00 19.6 C 11.82 g/m*3 19.6 C 0 km/h
270 03-09-2016 22:25:00 19.6 C 11.82 g/m*3 19.6 C 0 km/h
271 03-09-2016 22:30:00 19.4 C 11.85 g/m*3 19.4 C 0 km/h
272 03-09-2016 22:35:00 19.3 C 11.78 g/m*3 19.3 C 0 km/h
273 03-09-2016 22:40:00 19.2 C 11.71 g/m*3 19.2 C 0 km/h
274 03-09-2016 22:45:00 19.2 C 11.71 g/m*3 19.2 C 0 km/h
275 03-09-2016 22:50:00 19.1 C 11.64 g/m*3 19.1 C 0 km/h
Sensor: Nr:Datum:Temp:Abs-Feuchte:Windchill:Wind:
Aussen-T/F 276 03-09-2016 22:55:00 19 C 11.57 g/m*3 19 C 0 km/h
277 03-09-2016 23:00:00 18.9 C 11.5 g/m*3 18.9 C 0 km/h
278 03-09-2016 23:05:00 18.9 C 11.66 g/m*3 18.9 C 0 km/h
279 03-09-2016 23:10:00 18.8 C 11.6 g/m*3 18.8 C 0 km/h
280 03-09-2016 23:15:00 18.8 C 11.6 g/m*3 18.8 C 0 km/h
281 03-09-2016 23:20:00 18.9 C 11.83 g/m*3 18.9 C 1.6 km/h
282 03-09-2016 23:25:00 18.9 C 11.66 g/m*3 18.9 C 0 km/h
283 03-09-2016 23:30:00 18.9 C 11.83 g/m*3 18.9 C 0 km/h
284 03-09-2016 23:35:00 18.8 C 11.76 g/m*3 18.8 C 0 km/h
285 03-09-2016 23:40:00 18.7 C 11.85 g/m*3 18.7 C 0 km/h
286 03-09-2016 23:45:00 18.6 C 11.78 g/m*3 18.6 C 0 km/h
287 03-09-2016 23:50:00 18.5 C 11.87 g/m*3 18.5 C 0 km/h
288 03-09-2016 23:55:00 18.4 C 11.8 g/m*3 18.4 C 0 km/h

Legende:
   Min
   Max


Maximal/Minimal-Werte vom 03.09.2016 - 03.09.2016

Sensor Min Max Avg
Temp
(Aussen-T/F)
14.3 °C
03-09-2016  06:55:00
29.8 °C
03-09-2016  17:20:00
20.72 °C
Abs-Feuchte
(Aussen-T/F)
11.3 g/m*3
03-09-2016  06:55:00
15.57 g/m*3
03-09-2016  13:55:00
12.86 g/m*3
Windchill
(Aussen-T/F)
14.3 C
03-09-2016  06:55:00
29.8 C
03-09-2016  17:20:00
20.65 C

Die Daten stammen von einer Davis Vantage Pro 2 Wetter-Station und werden unter Linux mit der Software wview2wettercgi und aufbereitet. Alle Angaben erfolgen ohne Gewähr für ihre Vollständigkeit oder Richtigkeit.
Kontakt: Rainer Krienke krienke@uni-koblenz.de . Meine Webseiten an der Uni Koblenz oder privat.
Version: $Revision: 0.78 $